Ride Results

Armadale Heritage Country (31-07-1999)
Ride distance: 80.0 km

Outcomes - Armadale Heritage Country (31-07-1999)
Division No. of Entries Retired / DNE Completed Withdrawn Ineligible V/O Percentage Completed
HW 6 - 4 - - 2 66.67%
MW 18 - 13 2 - 3 72.22%
LW 8 - 5 - - 3 62.50%
JN 5 - 3 1 - 1 60.00%
Totals 37 - 25 3 - 9 67.57%
Results - Armadale Heritage Country (31-07-1999)
No. Rider Horse Place Time Leg Speeds Total
Km/Hr
H/R bpm
Heavyweight
67 Meg Woodhouse Indian Rae 1 7:39:00 11.5, 9.5 10.46 33, 42, 55 (Avg:48)
72 Keith Davenport Balgownie Berk 2 8:10:00 11.7, 8.3 9.80 42, 45, 52 (Avg:48)
68 Robert Burns Naadahji 3 8:32:00 10.1, 8.7 9.38 42, 42, 51 (Avg:46)
74 Patrick Burns Joschi 4 8:50:00 9.7, 8.4 9.06 43, 51, 51 (Avg:51)
80 Glenn Dix Malibu Luck Heart Rate L2 0:00:00 11.5, 9.5 - 37, 42, 63 (Avg:52)
77 Tracey Reed Marbling Noelle Lame L1 0:00:00 11.0 - 39, 44 (Avg:44)
Middleweight
60 James Lockwood Tora Jobe 1 (BC) 7:01:00 13.7, 9.7 11.40 29, 38, 47 (Avg:42)
64 Liz Cullam Al Barak 2 7:06:00 13.7, 9.5 11.27 35, 37, 48 (Avg:42)
62 Bill Dransfield Fawley Indigo 2 7:06:00 13.7, 9.5 11.27 41, 39, 49 (Avg:44)
83 Rhonda Seeber Abba 4 7:25:00 12.8, 9.3 10.79 38, 44, 56 (Avg:50)
87 Sharon Coughlan Maralinga Saleem 5 7:33:00 11.9, 9.5 10.60 44, 44, 56 (Avg:50)
99 Michelle Lewis Yeoman Zadaya 6 7:48:00 11.6, 9.1 10.26 36, 46, 57 (Avg:51)
65 Bruce Scott Calico Buck 6 7:48:00 11.6, 9.1 10.26 31, 39, 47 (Avg:43)
94 Patrick Denham Annie De Arab 8 8:17:00 10.3, 9.0 9.66 38, 43, 55 (Avg:49)
95 Jesse Denham Shatann 8 8:17:00 10.3, 9.0 9.66 36, 43, 48 (Avg:45)
71 Kathryn Bain Bawara Khibrah 10 8:25:00 10.4, 8.6 9.50 34, 41, 48 (Avg:44)
76 Steven Stanley Maralinga Rovada 11 8:32:00 11.0, 8.1 9.38 28, 37, 52 (Avg:44)
89 Kerry Stanley Kellyco 12 8:45:00 10.5, 8.0 9.14 44, 40, 53 (Avg:46)
81 Libby Derbyshire Toby 13 8:50:00 9.7, 8.4 9.06 33
88 Tania Foster Breeze Heart Rate L2 0:00:00 12.6, 8.5 - 38, 50, 59 (Avg:54)
82 Jodie McKell Noran Cortez Widthdrawn L2 0:00:00 - - 33, 52, 55 (Avg:53)
66 Deb Ryan Tessa Lame L2 0:00:00 12.8, 9.3 - 33, 40, 40 (Avg:40)
61 Maeve Dransfield Hillain Kingsley Lame L1 0:00:00 11.9 - 35, 40 (Avg:40)
63 Ken Hobday Blue Widthdrawn L1 0:00:00 - - 38, 43 (Avg:43)
Lightweight
98 Heather Hawkins Shah Tarkarra 1 (BC) 7:19:00 12.4, 9.7 10.93 38, 37, 50 (Avg:43)
86 Jenine Pike Clearhills Shahlan 2 7:33:00 11.9, 9.4 10.60 38, 41, 60 (Avg:50)
70 Tegan Symington Tanderra Tarelle 3 7:47:00 10.7, 9.8 10.28 46, 45, 58 (Avg:51)
97 Kerryn Willing Nangita Morning Mist 4 8:10:00 11.7, 8.3 9.80 32, 39, 46 (Avg:42)
79 Kylie Hammond Ros Tien 5 8:25:00 10.4, 8.6 9.50 36, 38, 50 (Avg:44)
69 Miriam Burns Cascade Shaara Heart Rate L2 0:00:00 10.1, 8.7 - 43, 47, 58 (Avg:52)
73 Faye Crockford Rabiana Summer Rain Heart Rate L2 0:00:00 10.4, 8.4 - 36, 51, 68 (Avg:59)
75 Carol Willcocks Dine Wani Al Jahara Lame L2 0:00:00 11.0, 8.1 - 36, 41, 40 (Avg:40)
Junior
91 Cassie Mulcahy Top Fancy Foxfire 1 7:19:00 12.4, 9.7 10.93 39, 44, 51 (Avg:47)
84 David Riches Tora Sabah 2 (BC) 7:33:00 11.9, 9.4 10.60 34, 38, 41 (Avg:39)
90 Louise Stanley Burrabidgy Boy 3 8:45:00 10.5, 8.0 9.14 33, 38, 47 (Avg:42)
85 Stacey McDonald Ted Lame L2 0:00:00 11.9, 9.4 - 36, 42, 51 (Avg:46)
96 Tim Denham Shareeba Widthdrawn L1 0:00:00 - - 34, 39 (Avg:39)